Ride Results

Bendemeer (11-09-2011)
Ride distance: 80.0 km

Outcomes - Bendemeer (11-09-2011)
Division No. of Entries Retired / DNE Completed Withdrawn Ineligible V/O Percentage Completed
HW 9 - 7 1 - 1 77.78%
MW 22 - 19 3 - - 86.36%
LW 15 - 13 1 - 1 86.67%
JN 5 - 4 - - 1 80.00%
TR 1 - 1 - - - 100.00%
Totals 52 - 44 5 - 3 84.62%
Results - Bendemeer (11-09-2011)
No. Rider Horse Place Time Leg Speeds Total
Km/Hr
H/R bpm
Heavyweight
31 Phil Coleman Alnotarj Statistic 1 6:30:00 11.3, 13.4 12.31 44, 40, 44 (Avg:42)
10 Marylou Locke Ally 2 7:29:00 13.6, 8.7 10.69 34, 40, 44 (Avg:42)
48 Gary Thomas Ben Mariah 3 7:34:00 11.7, 9.6 10.57 31, 38, 45 (Avg:41)
8 Greg Moore Parkview Armageddon 4 7:54:00 10.8, 9.5 10.13 40, 45, 50 (Avg:47)
44 Tami Parnell El Jabal Brook 5 8:14:00 9.9, 9.4 9.72 46, 44, 55 (Avg:49)
20 Susan Luthy Mystical Knight 6 8:24:00 10.3, 8.7 9.52 37, 41, 48 (Avg:44)
15 Peter Grelck Fairview Dream Seeker 7 8:46:00 10.1, 8.3 9.13 36, 40, 55 (Avg:47)
21 Steve Brooks Harmere Lahsa Lame L1 0:00:00 13.5 - 38, 46 (Avg:46)
25 Rod Mitchell Aloha Tribal Warrior Withdrawn P/R 0:00:00 - - -
Middleweight
36 Jane Davidson Cherox Bluebeard 1 (BC) 5:31:00 15.9, 13.2 14.50 37, 37, 43 (Avg:40)
6 Thomas Hermann TTH Headliner 2 5:47:00 16.1, 12.1 13.83 22, 45, 43 (Avg:44)
26 David Urquhart Rio Sufwahn 3 6:03:00 13.1, 13.3 13.22 42, 46, 45 (Avg:45)
37 Sally Jenkins Larabi Sid Simba'ar 4 6:06:00 13.1, 13.1 13.11 42, 41, 46 (Avg:43)
38 Rhys Rayner Rose Lane Sadika 4 6:06:00 13.1, 13.1 13.11 44, 49, 49 (Avg:49)
29 Gail Fisher Arasarta Narhalinian 6 6:17:00 13.9, 11.7 12.73 38, 43, 50 (Avg:46)
45 Jennifer Longstaff Summit Park Crusette 7 6:30:00 13.9, 11.0 12.31 45, 44, 48 (Avg:46)
5 Jennifer Gilbertson Out of Africa 8 6:36:00 13.2, 11.1 12.12 37, 40, 45 (Avg:42)
7 Garry Weis Carjola Park Prince Shahwan 9 6:50:00 13.3, 10.4 11.71 42, 42, 45 (Avg:43)
2 Sandi Brown Ithilien Arwen 10 7:01:00 12.2, 10.6 11.40 34, 38, 42 (Avg:40)
11 Bob Locke Nyora Legacy 11 7:29:00 13.6, 8.7 10.69 31, 35, 40 (Avg:37)
49 Ashley Thomas Montville Abigail 12 7:34:00 11.7, 9.6 10.57 41, 50, 56 (Avg:53)
42 Darryl King Shanadarr Khaleel 13 7:39:00 10.3, 10.5 10.46 44, 40, 48 (Avg:44)
51 Lyall Cameron Master Bobby 14 7:45:00 10.8, 9.8 10.32 52, 48, 56 (Avg:52)
52 Sonia Bonham Box Hill Diva 15 7:55:00 10.5, 9.7 10.11 40, 49, 48 (Avg:48)
23 Judith Burton Woodbourne Furry Lewis 16 7:56:00 11.9, 8.6 10.08 46, 42, 44 (Avg:43)
19 Suzanne Barton Eljannah Majid 17 8:26:00 10.3, 8.7 9.49 37, 39, 54 (Avg:46)
24 Sonya Ruprecht Foxridge Merlyn 17 8:26:00 10.3, 8.7 9.49 39, 48, 50 (Avg:49)
18 Ruth Van der Wegen Aloha Ameer 19 8:27:00 10.3, 8.7 9.47 32, 38, 39 (Avg:38)
41 Meg Garzaniti Shanadarr Zahira Withdrawn L1 0:00:00 - - 45, 47 (Avg:47)
16 Renee Kirk Garnee Full Throttle Withdrawn L1 0:00:00 - - 50, 50 (Avg:50)
12 Bonnie Robinson Forest Dale Dream Catcher Withdrawn L1 0:00:00 - - 42, 43 (Avg:43)
Lightweight
43 Jennifer Annetts Tallawarra Jazardis 1 5:05:00 16.5, 14.9 15.74 38, 44, 47 (Avg:45)
17 Tracey Hutchinson Junabee Park Shamekha 1 (BC) 5:05:00 16.5, 14.9 15.74 31, 36, 39 (Avg:37)
27 Anne Hills Kerewong Shelfyre 3 5:07:00 15.8, 15.3 15.64 38, 44, 49 (Avg:46)
39 Kirsty Owen Heartfire Hafiz 4 5:31:00 15.9, 13.2 14.50 42, 39, 40 (Avg:39)
33 Sonya Ardill Splitters Creek Rosie 5 6:30:00 13.1, 11.5 12.31 34, 41, 49 (Avg:45)
4 Antonia Gilbertson Howard Park Shataan 6 6:36:00 13.2, 11.1 12.12 37, 40, 50 (Avg:45)
28 Sue Todd Shakista 7 6:50:00 13.3, 10.4 11.71 40, 44, 51 (Avg:47)
3 Melinda Watters Revere Shalee 8 7:19:00 12.2, 9.8 10.93 46, 45, 47 (Avg:46)
34 Libby Jones Prada Kei 9 8:14:00 9.9, 9.4 9.72 40, 44, 46 (Avg:45)
9 Belle Bollard Bondale Brown 10 8:23:00 10.5, 8.7 9.54 44, 45, 55 (Avg:50)
30 Ros Ryan Cloudburst 11 8:27:00 10.3, 8.7 9.47 38, 44, 50 (Avg:47)
14 Jillian Grelck Bobby Dazzler 12 8:28:00 10.1, 8.8 9.45 28, 36, 37 (Avg:36)
50 Jan Wade Hillville Amigo 12 8:28:00 10.4, 8.6 9.45 40, 42, 44 (Avg:43)
35 Linda Logan Follydown Topaz Withdrawn L1 0:00:00 - - 38, 44 (Avg:44)
47 Kate Pilley Pancho Lame L1 0:00:00 14.0 - 38, 45 (Avg:45)
Junior
13 Shannen Thorsby Margjon Montgomery 1 6:30:00 13.2, 11.4 12.31 36, 38, 57 (Avg:47)
40 Mia Bodewes Tallawarra Spy 2 7:21:00 11.3, 10.4 10.88 40, 46, 53 (Avg:49)
22 Jasmine Shields Woodbourne Larry 3 7:25:00 11.9, 9.7 10.79 55, 42, 44 (Avg:43)
46 Justin Pilley Box Hill Rain Lover 4 7:55:00 10.5, 9.7 10.11 34, 41, 55 (Avg:48)
32 India Hutchinson Beau Val Feodora Lame L2 0:00:00 16.5, 14.9 - 48, 42, 53 (Avg:47)
Training
1 Kim Hagon Gandari Alva Caasteele 1 8:24:00 10.5, 8.6 9.52 40, 42, 49 (Avg:45)